sensor_id;sensor_type;location;lat;lon;timestamp;temperature;humidity
19555;DHT22;9924;50.828;6.440;2023-09-19T00:00:30;16.30;99.90
19555;DHT22;9924;50.828;6.440;2023-09-19T00:02:56;16.30;99.90
19555;DHT22;9924;50.828;6.440;2023-09-19T00:05:23;16.30;99.90
19555;DHT22;9924;50.828;6.440;2023-09-19T00:07:53;16.30;99.90
19555;DHT22;9924;50.828;6.440;2023-09-19T00:10:21;16.30;99.90
19555;DHT22;9924;50.828;6.440;2023-09-19T00:12:47;16.30;99.90
19555;DHT22;9924;50.828;6.440;2023-09-19T00:15:13;16.30;99.90
19555;DHT22;9924;50.828;6.440;2023-09-19T00:17:43;16.40;99.90
19555;DHT22;9924;50.828;6.440;2023-09-19T00:20:10;16.30;99.90
19555;DHT22;9924;50.828;6.440;2023-09-19T00:22:41;16.30;99.90
19555;DHT22;9924;50.828;6.440;2023-09-19T00:25:11;16.30;99.90
19555;DHT22;9924;50.828;6.440;2023-09-19T00:27:40;16.30;99.90
19555;DHT22;9924;50.828;6.440;2023-09-19T00:30:12;16.40;99.90
19555;DHT22;9924;50.828;6.440;2023-09-19T00:32:48;16.40;99.90
19555;DHT22;9924;50.828;6.440;2023-09-19T00:35:14;16.40;99.90
19555;DHT22;9924;50.828;6.440;2023-09-19T00:37:44;16.40;99.90
19555;DHT22;9924;50.828;6.440;2023-09-19T00:40:10;16.40;99.90
19555;DHT22;9924;50.828;6.440;2023-09-19T00:42:41;16.40;99.90
19555;DHT22;9924;50.828;6.440;2023-09-19T00:45:11;16.40;99.90
19555;DHT22;9924;50.828;6.440;2023-09-19T00:47:50;16.40;99.90
19555;DHT22;9924;50.828;6.440;2023-09-19T00:50:18;16.40;99.90
19555;DHT22;9924;50.828;6.440;2023-09-19T00:52:46;16.40;99.90
19555;DHT22;9924;50.828;6.440;2023-09-19T00:55:14;16.40;99.90
19555;DHT22;9924;50.828;6.440;2023-09-19T00:57:42;16.40;99.90
19555;DHT22;9924;50.828;6.440;2023-09-19T01:00:11;16.40;99.90
19555;DHT22;9924;50.828;6.440;2023-09-19T01:02:41;16.40;99.90
19555;DHT22;9924;50.828;6.440;2023-09-19T01:05:09;16.40;99.90
19555;DHT22;9924;50.828;6.440;2023-09-19T01:07:36;16.40;99.90
19555;DHT22;9924;50.828;6.440;2023-09-19T01:10:09;16.40;99.90
19555;DHT22;9924;50.828;6.440;2023-09-19T01:12:44;16.30;99.90
19555;DHT22;9924;50.828;6.440;2023-09-19T01:18:01;16.20;99.90
19555;DHT22;9924;50.828;6.440;2023-09-19T01:20:44;16.10;99.90
19555;DHT22;9924;50.828;6.440;2023-09-19T01:23:34;16.00;99.90
19555;DHT22;9924;50.828;6.440;2023-09-19T01:26:18;15.90;99.90
19555;DHT22;9924;50.828;6.440;2023-09-19T01:28:53;15.80;99.90
19555;DHT22;9924;50.828;6.440;2023-09-19T01:31:28;15.80;99.90
19555;DHT22;9924;50.828;6.440;2023-09-19T01:34:02;15.70;99.90
19555;DHT22;9924;50.828;6.440;2023-09-19T01:36:34;15.70;99.90
19555;DHT22;9924;50.828;6.440;2023-09-19T01:39:03;15.60;99.90
19555;DHT22;9924;50.828;6.440;2023-09-19T01:42:01;15.60;99.90
19555;DHT22;9924;50.828;6.440;2023-09-19T01:44:55;15.60;99.90
19555;DHT22;9924;50.828;6.440;2023-09-19T01:48:00;15.60;99.90
19555;DHT22;9924;50.828;6.440;2023-09-19T01:50:30;15.50;99.90
19555;DHT22;9924;50.828;6.440;2023-09-19T01:53:14;15.40;99.90
19555;DHT22;9924;50.828;6.440;2023-09-19T01:55:45;15.40;99.90
19555;DHT22;9924;50.828;6.440;2023-09-19T02:00:52;15.30;99.90
19555;DHT22;9924;50.828;6.440;2023-09-19T02:03:20;15.30;99.90
19555;DHT22;9924;50.828;6.440;2023-09-19T02:05:51;15.30;99.90
19555;DHT22;9924;50.828;6.440;2023-09-19T02:08:21;15.30;99.90
19555;DHT22;9924;50.828;6.440;2023-09-19T02:10:49;15.20;99.90
19555;DHT22;9924;50.828;6.440;2023-09-19T02:13:18;15.20;99.90
19555;DHT22;9924;50.828;6.440;2023-09-19T02:15:47;15.20;99.90
19555;DHT22;9924;50.828;6.440;2023-09-19T02:18:13;15.10;99.90
19555;DHT22;9924;50.828;6.440;2023-09-19T02:20:40;15.10;99.90
19555;DHT22;9924;50.828;6.440;2023-09-19T02:23:06;15.10;99.90
19555;DHT22;9924;50.828;6.440;2023-09-19T02:25:33;15.10;99.90
19555;DHT22;9924;50.828;6.440;2023-09-19T02:27:59;15.10;99.90
19555;DHT22;9924;50.828;6.440;2023-09-19T02:30:26;15.10;99.90
19555;DHT22;9924;50.828;6.440;2023-09-19T02:32:52;15.10;99.90
19555;DHT22;9924;50.828;6.440;2023-09-19T02:35:18;15.10;99.90
19555;DHT22;9924;50.828;6.440;2023-09-19T02:37:45;15.00;99.90
19555;DHT22;9924;50.828;6.440;2023-09-19T02:40:11;15.00;99.90
19555;DHT22;9924;50.828;6.440;2023-09-19T02:42:55;15.00;99.90
19555;DHT22;9924;50.828;6.440;2023-09-19T02:45:21;15.00;99.90
19555;DHT22;9924;50.828;6.440;2023-09-19T02:47:49;15.00;99.90
19555;DHT22;9924;50.828;6.440;2023-09-19T02:50:15;15.00;99.90
19555;DHT22;9924;50.828;6.440;2023-09-19T02:52:42;14.90;99.90
19555;DHT22;9924;50.828;6.440;2023-09-19T02:55:17;15.00;99.90
19555;DHT22;9924;50.828;6.440;2023-09-19T02:57:52;14.90;99.90
19555;DHT22;9924;50.828;6.440;2023-09-19T03:00:22;14.90;99.90
19555;DHT22;9924;50.828;6.440;2023-09-19T03:02:54;14.80;99.90
19555;DHT22;9924;50.828;6.440;2023-09-19T03:05:21;14.80;99.90
19555;DHT22;9924;50.828;6.440;2023-09-19T03:07:47;14.80;99.90
19555;DHT22;9924;50.828;6.440;2023-09-19T03:10:20;14.80;99.90
19555;DHT22;9924;50.828;6.440;2023-09-19T03:12:47;14.80;99.90
19555;DHT22;9924;50.828;6.440;2023-09-19T03:15:13;14.80;99.90
19555;DHT22;9924;50.828;6.440;2023-09-19T03:17:44;14.80;99.90
19555;DHT22;9924;50.828;6.440;2023-09-19T03:20:10;14.70;99.90
19555;DHT22;9924;50.828;6.440;2023-09-19T03:22:38;14.70;99.90
19555;DHT22;9924;50.828;6.440;2023-09-19T03:25:06;14.70;99.90
19555;DHT22;9924;50.828;6.440;2023-09-19T03:27:34;14.70;99.90
19555;DHT22;9924;50.828;6.440;2023-09-19T03:30:00;14.70;99.90
19555;DHT22;9924;50.828;6.440;2023-09-19T03:32:26;14.70;99.90
19555;DHT22;9924;50.828;6.440;2023-09-19T03:34:52;14.70;99.90
19555;DHT22;9924;50.828;6.440;2023-09-19T03:37:17;14.70;99.90
19555;DHT22;9924;50.828;6.440;2023-09-19T03:39:44;14.70;99.90
19555;DHT22;9924;50.828;6.440;2023-09-19T03:42:09;14.70;99.90
19555;DHT22;9924;50.828;6.440;2023-09-19T03:44:35;14.60;99.90
19555;DHT22;9924;50.828;6.440;2023-09-19T03:47:01;14.60;99.90
19555;DHT22;9924;50.828;6.440;2023-09-19T03:49:26;14.60;99.90
19555;DHT22;9924;50.828;6.440;2023-09-19T03:51:52;14.60;99.90
19555;DHT22;9924;50.828;6.440;2023-09-19T03:54:18;14.60;99.90
19555;DHT22;9924;50.828;6.440;2023-09-19T03:56:45;14.60;99.90
19555;DHT22;9924;50.828;6.440;2023-09-19T03:59:11;14.60;99.90
19555;DHT22;9924;50.828;6.440;2023-09-19T04:01:38;14.50;99.90
19555;DHT22;9924;50.828;6.440;2023-09-19T04:04:04;14.50;99.90
19555;DHT22;9924;50.828;6.440;2023-09-19T04:06:36;14.50;99.90
19555;DHT22;9924;50.828;6.440;2023-09-19T04:09:03;14.50;99.90
19555;DHT22;9924;50.828;6.440;2023-09-19T04:11:29;14.50;99.90
19555;DHT22;9924;50.828;6.440;2023-09-19T04:13:56;14.50;99.90
19555;DHT22;9924;50.828;6.440;2023-09-19T04:16:22;14.50;99.90
19555;DHT22;9924;50.828;6.440;2023-09-19T04:18:47;14.50;99.90
19555;DHT22;9924;50.828;6.440;2023-09-19T04:21:13;14.50;99.90
19555;DHT22;9924;50.828;6.440;2023-09-19T04:23:39;14.50;99.90
19555;DHT22;9924;50.828;6.440;2023-09-19T04:26:05;14.50;99.90
19555;DHT22;9924;50.828;6.440;2023-09-19T04:28:31;14.50;99.90
19555;DHT22;9924;50.828;6.440;2023-09-19T04:31:00;14.50;99.90
19555;DHT22;9924;50.828;6.440;2023-09-19T04:33:26;14.40;99.90
19555;DHT22;9924;50.828;6.440;2023-09-19T04:35:55;14.40;99.90
19555;DHT22;9924;50.828;6.440;2023-09-19T04:38:21;14.40;99.90
19555;DHT22;9924;50.828;6.440;2023-09-19T04:40:47;14.40;99.90
19555;DHT22;9924;50.828;6.440;2023-09-19T04:43:13;14.40;99.90
19555;DHT22;9924;50.828;6.440;2023-09-19T04:45:39;14.40;99.90
19555;DHT22;9924;50.828;6.440;2023-09-19T04:48:05;14.30;99.90
19555;DHT22;9924;50.828;6.440;2023-09-19T04:50:34;14.20;99.90
19555;DHT22;9924;50.828;6.440;2023-09-19T04:53:00;14.20;99.90
19555;DHT22;9924;50.828;6.440;2023-09-19T04:55:26;14.20;99.90
19555;DHT22;9924;50.828;6.440;2023-09-19T04:57:53;14.20;99.90
19555;DHT22;9924;50.828;6.440;2023-09-19T05:00:23;14.20;99.90
19555;DHT22;9924;50.828;6.440;2023-09-19T05:02:56;14.20;99.90
19555;DHT22;9924;50.828;6.440;2023-09-19T05:05:22;14.20;99.90
19555;DHT22;9924;50.828;6.440;2023-09-19T05:07:49;14.20;99.90
19555;DHT22;9924;50.828;6.440;2023-09-19T05:10:16;14.20;99.90
19555;DHT22;9924;50.828;6.440;2023-09-19T05:12:44;14.20;99.90
19555;DHT22;9924;50.828;6.440;2023-09-19T05:15:14;14.20;99.90
19555;DHT22;9924;50.828;6.440;2023-09-19T05:17:40;14.20;99.90
19555;DHT22;9924;50.828;6.440;2023-09-19T05:20:07;14.20;99.90
19555;DHT22;9924;50.828;6.440;2023-09-19T05:22:45;14.10;99.90
19555;DHT22;9924;50.828;6.440;2023-09-19T05:25:11;14.10;99.90
19555;DHT22;9924;50.828;6.440;2023-09-19T05:27:42;14.10;99.90
19555;DHT22;9924;50.828;6.440;2023-09-19T05:30:08;14.10;99.90
19555;DHT22;9924;50.828;6.440;2023-09-19T05:32:34;14.10;99.90
19555;DHT22;9924;50.828;6.440;2023-09-19T05:35:00;14.10;99.90
19555;DHT22;9924;50.828;6.440;2023-09-19T05:37:27;14.10;99.90
19555;DHT22;9924;50.828;6.440;2023-09-19T05:39:53;14.10;99.90
19555;DHT22;9924;50.828;6.440;2023-09-19T05:42:19;14.10;99.90
19555;DHT22;9924;50.828;6.440;2023-09-19T05:44:45;14.10;99.90
19555;DHT22;9924;50.828;6.440;2023-09-19T05:47:10;14.10;99.90
19555;DHT22;9924;50.828;6.440;2023-09-19T05:49:36;14.10;99.90
19555;DHT22;9924;50.828;6.440;2023-09-19T05:52:06;14.20;99.90
19555;DHT22;9924;50.828;6.440;2023-09-19T05:54:32;14.20;99.90
19555;DHT22;9924;50.828;6.440;2023-09-19T05:57:00;14.20;99.90
19555;DHT22;9924;50.828;6.440;2023-09-19T05:59:27;14.20;99.90
19555;DHT22;9924;50.828;6.440;2023-09-19T06:01:53;14.30;99.90
19555;DHT22;9924;50.828;6.440;2023-09-19T06:04:18;14.30;99.90
19555;DHT22;9924;50.828;6.440;2023-09-19T06:06:45;14.30;99.90
19555;DHT22;9924;50.828;6.440;2023-09-19T06:09:11;14.30;99.90
19555;DHT22;9924;50.828;6.440;2023-09-19T06:11:36;14.30;99.90
19555;DHT22;9924;50.828;6.440;2023-09-19T06:14:03;14.40;99.90
19555;DHT22;9924;50.828;6.440;2023-09-19T06:16:29;14.40;99.90
19555;DHT22;9924;50.828;6.440;2023-09-19T06:18:55;14.40;99.90
19555;DHT22;9924;50.828;6.440;2023-09-19T06:21:24;14.50;99.90
19555;DHT22;9924;50.828;6.440;2023-09-19T06:23:49;14.50;99.90
19555;DHT22;9924;50.828;6.440;2023-09-19T06:26:15;14.50;99.90
19555;DHT22;9924;50.828;6.440;2023-09-19T06:28:41;14.50;99.90
19555;DHT22;9924;50.828;6.440;2023-09-19T06:31:08;14.50;99.90
19555;DHT22;9924;50.828;6.440;2023-09-19T06:33:38;14.60;99.90
19555;DHT22;9924;50.828;6.440;2023-09-19T06:36:05;14.70;99.90
19555;DHT22;9924;50.828;6.440;2023-09-19T06:38:31;14.70;99.90
19555;DHT22;9924;50.828;6.440;2023-09-19T06:41:00;14.80;99.90
19555;DHT22;9924;50.828;6.440;2023-09-19T06:43:27;14.90;99.90
19555;DHT22;9924;50.828;6.440;2023-09-19T06:45:56;15.00;99.90
19555;DHT22;9924;50.828;6.440;2023-09-19T06:48:22;15.00;99.90
19555;DHT22;9924;50.828;6.440;2023-09-19T06:50:50;15.10;99.90
19555;DHT22;9924;50.828;6.440;2023-09-19T06:53:16;15.20;99.90
19555;DHT22;9924;50.828;6.440;2023-09-19T06:55:43;15.30;99.90
19555;DHT22;9924;50.828;6.440;2023-09-19T06:58:09;15.50;99.90
19555;DHT22;9924;50.828;6.440;2023-09-19T07:00:36;15.50;99.90
19555;DHT22;9924;50.828;6.440;2023-09-19T07:03:03;15.60;99.90
19555;DHT22;9924;50.828;6.440;2023-09-19T07:05:32;15.60;99.90
19555;DHT22;9924;50.828;6.440;2023-09-19T07:07:59;15.60;99.90
19555;DHT22;9924;50.828;6.440;2023-09-19T07:10:27;15.60;99.90
19555;DHT22;9924;50.828;6.440;2023-09-19T07:15:28;15.70;99.90
19555;DHT22;9924;50.828;6.440;2023-09-19T07:17:54;15.70;99.90
19555;DHT22;9924;50.828;6.440;2023-09-19T07:20:22;15.70;99.90
19555;DHT22;9924;50.828;6.440;2023-09-19T07:22:49;15.80;99.90
19555;DHT22;9924;50.828;6.440;2023-09-19T07:25:16;15.80;99.90
19555;DHT22;9924;50.828;6.440;2023-09-19T07:27:42;15.90;99.90
19555;DHT22;9924;50.828;6.440;2023-09-19T07:30:09;15.90;99.90
19555;DHT22;9924;50.828;6.440;2023-09-19T07:32:37;16.00;99.90
19555;DHT22;9924;50.828;6.440;2023-09-19T07:35:04;16.10;99.90
19555;DHT22;9924;50.828;6.440;2023-09-19T07:37:31;16.20;99.90
19555;DHT22;9924;50.828;6.440;2023-09-19T07:40:02;16.30;99.90
19555;DHT22;9924;50.828;6.440;2023-09-19T07:42:33;16.40;99.90
19555;DHT22;9924;50.828;6.440;2023-09-19T07:45:02;16.50;99.90
19555;DHT22;9924;50.828;6.440;2023-09-19T07:47:28;16.50;99.90
19555;DHT22;9924;50.828;6.440;2023-09-19T07:49:55;16.60;99.90
19555;DHT22;9924;50.828;6.440;2023-09-19T07:52:21;16.50;99.90
19555;DHT22;9924;50.828;6.440;2023-09-19T07:54:48;16.50;99.90
19555;DHT22;9924;50.828;6.440;2023-09-19T07:57:15;16.60;99.90
19555;DHT22;9924;50.828;6.440;2023-09-19T07:59:41;16.70;99.90
19555;DHT22;9924;50.828;6.440;2023-09-19T08:02:08;16.90;99.90
19555;DHT22;9924;50.828;6.440;2023-09-19T08:04:35;17.10;99.90
19555;DHT22;9924;50.828;6.440;2023-09-19T08:07:01;17.20;99.90
19555;DHT22;9924;50.828;6.440;2023-09-19T08:09:29;17.20;99.90
19555;DHT22;9924;50.828;6.440;2023-09-19T08:11:59;17.30;99.90
19555;DHT22;9924;50.828;6.440;2023-09-19T08:14:29;17.50;99.90
19555;DHT22;9924;50.828;6.440;2023-09-19T08:16:58;17.50;99.90
19555;DHT22;9924;50.828;6.440;2023-09-19T08:19:24;17.50;99.90
19555;DHT22;9924;50.828;6.440;2023-09-19T08:21:57;17.40;99.90
19555;DHT22;9924;50.828;6.440;2023-09-19T08:24:30;17.30;99.90
19555;DHT22;9924;50.828;6.440;2023-09-19T08:26:57;17.40;99.90
19555;DHT22;9924;50.828;6.440;2023-09-19T08:29:24;17.40;99.90
19555;DHT22;9924;50.828;6.440;2023-09-19T08:31:59;17.50;99.90
19555;DHT22;9924;50.828;6.440;2023-09-19T08:34:25;17.60;99.90
19555;DHT22;9924;50.828;6.440;2023-09-19T08:36:52;17.60;99.90
19555;DHT22;9924;50.828;6.440;2023-09-19T08:39:26;17.70;99.90
19555;DHT22;9924;50.828;6.440;2023-09-19T08:41:58;17.70;99.90
19555;DHT22;9924;50.828;6.440;2023-09-19T08:44:25;17.70;99.90
19555;DHT22;9924;50.828;6.440;2023-09-19T08:46:55;17.80;99.90
19555;DHT22;9924;50.828;6.440;2023-09-19T08:50:01;17.80;99.90
19555;DHT22;9924;50.828;6.440;2023-09-19T08:52:41;18.00;99.90
19555;DHT22;9924;50.828;6.440;2023-09-19T08:55:07;18.10;99.90
19555;DHT22;9924;50.828;6.440;2023-09-19T08:57:37;18.30;99.90
19555;DHT22;9924;50.828;6.440;2023-09-19T09:00:07;18.40;99.90
19555;DHT22;9924;50.828;6.440;2023-09-19T09:02:40;18.60;99.90
19555;DHT22;9924;50.828;6.440;2023-09-19T09:05:09;18.70;99.90
19555;DHT22;9924;50.828;6.440;2023-09-19T09:07:38;18.80;99.90
19555;DHT22;9924;50.828;6.440;2023-09-19T09:10:05;18.80;99.90
19555;DHT22;9924;50.828;6.440;2023-09-19T09:12:31;18.60;99.90
19555;DHT22;9924;50.828;6.440;2023-09-19T09:14:57;18.50;99.90
19555;DHT22;9924;50.828;6.440;2023-09-19T09:17:24;18.60;99.90
19555;DHT22;9924;50.828;6.440;2023-09-19T09:19:52;18.50;99.90
19555;DHT22;9924;50.828;6.440;2023-09-19T09:22:18;18.70;99.90
19555;DHT22;9924;50.828;6.440;2023-09-19T09:24:57;18.80;99.90
19555;DHT22;9924;50.828;6.440;2023-09-19T09:27:32;18.90;99.90
19555;DHT22;9924;50.828;6.440;2023-09-19T09:29:59;19.00;99.90
19555;DHT22;9924;50.828;6.440;2023-09-19T09:32:29;19.10;99.90
19555;DHT22;9924;50.828;6.440;2023-09-19T09:34:59;19.20;99.90
19555;DHT22;9924;50.828;6.440;2023-09-19T09:37:27;19.30;99.90
19555;DHT22;9924;50.828;6.440;2023-09-19T09:40:01;19.30;99.90
19555;DHT22;9924;50.828;6.440;2023-09-19T09:42:42;19.40;99.90
19555;DHT22;9924;50.828;6.440;2023-09-19T09:45:18;19.70;99.90
19555;DHT22;9924;50.828;6.440;2023-09-19T09:48:03;20.00;99.90
19555;DHT22;9924;50.828;6.440;2023-09-19T09:50:34;20.20;99.90
19555;DHT22;9924;50.828;6.440;2023-09-19T09:53:26;20.10;99.90
19555;DHT22;9924;50.828;6.440;2023-09-19T09:58:28;20.00;99.90
19555;DHT22;9924;50.828;6.440;2023-09-19T10:00:58;20.10;99.90
19555;DHT22;9924;50.828;6.440;2023-09-19T10:03:38;20.20;99.90
19555;DHT22;9924;50.828;6.440;2023-09-19T10:06:11;20.30;99.90
19555;DHT22;9924;50.828;6.440;2023-09-19T10:09:02;20.30;99.90
19555;DHT22;9924;50.828;6.440;2023-09-19T10:11:47;20.40;99.90
19555;DHT22;9924;50.828;6.440;2023-09-19T10:14:20;20.70;99.90
19555;DHT22;9924;50.828;6.440;2023-09-19T10:16:51;20.90;99.90
19555;DHT22;9924;50.828;6.440;2023-09-19T10:19:30;20.80;99.90
19555;DHT22;9924;50.828;6.440;2023-09-19T10:22:01;20.90;99.90
19555;DHT22;9924;50.828;6.440;2023-09-19T10:24:28;20.90;99.90
19555;DHT22;9924;50.828;6.440;2023-09-19T10:26:55;20.80;99.90
19555;DHT22;9924;50.828;6.440;2023-09-19T10:29:21;21.00;99.90
19555;DHT22;9924;50.828;6.440;2023-09-19T10:31:47;21.00;99.90
19555;DHT22;9924;50.828;6.440;2023-09-19T10:34:17;21.10;99.90
19555;DHT22;9924;50.828;6.440;2023-09-19T10:36:46;21.00;99.90
19555;DHT22;9924;50.828;6.440;2023-09-19T10:39:15;21.00;99.90
19555;DHT22;9924;50.828;6.440;2023-09-19T10:41:50;21.00;99.90
19555;DHT22;9924;50.828;6.440;2023-09-19T10:44:25;20.90;99.90
19555;DHT22;9924;50.828;6.440;2023-09-19T10:46:52;20.90;99.90
19555;DHT22;9924;50.828;6.440;2023-09-19T10:49:20;20.80;99.90
19555;DHT22;9924;50.828;6.440;2023-09-19T10:51:47;20.70;99.90
19555;DHT22;9924;50.828;6.440;2023-09-19T10:54:17;20.70;99.90
19555;DHT22;9924;50.828;6.440;2023-09-19T10:56:48;20.80;99.90
19555;DHT22;9924;50.828;6.440;2023-09-19T10:59:19;20.80;99.90
19555;DHT22;9924;50.828;6.440;2023-09-19T11:01:51;20.70;99.90
19555;DHT22;9924;50.828;6.440;2023-09-19T11:04:30;20.80;99.90
19555;DHT22;9924;50.828;6.440;2023-09-19T11:07:22;20.90;99.90
19555;DHT22;9924;50.828;6.440;2023-09-19T11:09:55;21.00;99.90
19555;DHT22;9924;50.828;6.440;2023-09-19T11:14:54;20.90;99.90
19555;DHT22;9924;50.828;6.440;2023-09-19T11:30:51;20.80;99.90
19555;DHT22;9924;50.828;6.440;2023-09-19T11:33:20;20.70;99.90
19555;DHT22;9924;50.828;6.440;2023-09-19T11:36:03;20.60;99.90
19555;DHT22;9924;50.828;6.440;2023-09-19T11:46:33;21.00;99.90
19555;DHT22;9924;50.828;6.440;2023-09-19T11:49:06;21.10;99.90
19555;DHT22;9924;50.828;6.440;2023-09-19T11:51:41;21.10;99.90
19555;DHT22;9924;50.828;6.440;2023-09-19T11:54:11;21.30;99.90
19555;DHT22;9924;50.828;6.440;2023-09-19T11:56:45;21.10;99.90
19555;DHT22;9924;50.828;6.440;2023-09-19T11:59:13;21.20;99.90
19555;DHT22;9924;50.828;6.440;2023-09-19T12:01:51;21.20;99.90
19555;DHT22;9924;50.828;6.440;2023-09-19T12:07:01;22.10;99.90
19555;DHT22;9924;50.828;6.440;2023-09-19T12:09:27;22.30;99.90
19555;DHT22;9924;50.828;6.440;2023-09-19T12:11:53;22.80;99.90
19555;DHT22;9924;50.828;6.440;2023-09-19T12:14:25;23.30;99.90
19555;DHT22;9924;50.828;6.440;2023-09-19T12:16:55;23.40;99.90
19555;DHT22;9924;50.828;6.440;2023-09-19T12:19:22;23.30;99.90
19555;DHT22;9924;50.828;6.440;2023-09-19T12:21:59;23.30;99.90
19555;DHT22;9924;50.828;6.440;2023-09-19T12:24:28;23.50;99.90
19555;DHT22;9924;50.828;6.440;2023-09-19T12:27:00;23.70;99.90
19555;DHT22;9924;50.828;6.440;2023-09-19T12:29:26;24.00;99.90
19555;DHT22;9924;50.828;6.440;2023-09-19T12:31:54;24.10;99.90
19555;DHT22;9924;50.828;6.440;2023-09-19T12:34:27;23.90;99.90
19555;DHT22;9924;50.828;6.440;2023-09-19T12:37:07;23.70;99.90
19555;DHT22;9924;50.828;6.440;2023-09-19T12:39:50;23.30;99.90
19555;DHT22;9924;50.828;6.440;2023-09-19T12:42:20;23.70;99.90
19555;DHT22;9924;50.828;6.440;2023-09-19T12:44:47;23.70;99.90
19555;DHT22;9924;50.828;6.440;2023-09-19T12:47:18;23.50;99.90
19555;DHT22;9924;50.828;6.440;2023-09-19T12:50:14;23.40;99.90
19555;DHT22;9924;50.828;6.440;2023-09-19T12:55:31;23.60;99.90
19555;DHT22;9924;50.828;6.440;2023-09-19T12:58:07;23.40;99.90
19555;DHT22;9924;50.828;6.440;2023-09-19T13:00:39;23.10;99.90
19555;DHT22;9924;50.828;6.440;2023-09-19T13:03:25;23.00;99.90
19555;DHT22;9924;50.828;6.440;2023-09-19T13:06:02;23.10;99.90
19555;DHT22;9924;50.828;6.440;2023-09-19T13:08:47;23.20;99.90
19555;DHT22;9924;50.828;6.440;2023-09-19T13:11:19;23.20;99.90
19555;DHT22;9924;50.828;6.440;2023-09-19T13:14:01;22.90;99.90
19555;DHT22;9924;50.828;6.440;2023-09-19T13:19:41;22.80;99.90
19555;DHT22;9924;50.828;6.440;2023-09-19T13:22:36;22.70;99.90
19555;DHT22;9924;50.828;6.440;2023-09-19T13:25:01;22.70;99.90
19555;DHT22;9924;50.828;6.440;2023-09-19T13:27:29;22.70;99.90
19555;DHT22;9924;50.828;6.440;2023-09-19T13:29:55;22.60;99.90
19555;DHT22;9924;50.828;6.440;2023-09-19T13:32:20;22.70;99.90
19555;DHT22;9924;50.828;6.440;2023-09-19T13:34:46;22.80;99.90
19555;DHT22;9924;50.828;6.440;2023-09-19T13:37:11;22.80;99.90
19555;DHT22;9924;50.828;6.440;2023-09-19T13:39:38;22.70;99.90
19555;DHT22;9924;50.828;6.440;2023-09-19T13:42:08;22.70;99.90
19555;DHT22;9924;50.828;6.440;2023-09-19T13:44:37;22.50;99.90
19555;DHT22;9924;50.828;6.440;2023-09-19T13:47:03;22.40;99.90
19555;DHT22;9924;50.828;6.440;2023-09-19T13:49:35;22.50;99.90
19555;DHT22;9924;50.828;6.440;2023-09-19T13:52:01;22.20;99.90
19555;DHT22;9924;50.828;6.440;2023-09-19T13:54:30;22.40;99.90
19555;DHT22;9924;50.828;6.440;2023-09-19T13:56:56;22.60;99.90
19555;DHT22;9924;50.828;6.440;2023-09-19T13:59:22;22.50;99.90
19555;DHT22;9924;50.828;6.440;2023-09-19T14:01:49;22.40;99.90
19555;DHT22;9924;50.828;6.440;2023-09-19T14:04:16;22.30;99.90
19555;DHT22;9924;50.828;6.440;2023-09-19T14:06:42;22.20;99.90
19555;DHT22;9924;50.828;6.440;2023-09-19T14:09:08;22.60;99.90
19555;DHT22;9924;50.828;6.440;2023-09-19T14:11:36;22.40;99.90
19555;DHT22;9924;50.828;6.440;2023-09-19T14:14:02;22.00;99.90
19555;DHT22;9924;50.828;6.440;2023-09-19T14:16:27;21.70;99.90
19555;DHT22;9924;50.828;6.440;2023-09-19T14:18:56;21.50;99.90
19555;DHT22;9924;50.828;6.440;2023-09-19T14:21:22;21.40;99.90
19555;DHT22;9924;50.828;6.440;2023-09-19T14:23:48;21.50;99.90
19555;DHT22;9924;50.828;6.440;2023-09-19T14:26:15;21.60;99.90
19555;DHT22;9924;50.828;6.440;2023-09-19T14:28:42;21.60;99.90
19555;DHT22;9924;50.828;6.440;2023-09-19T14:31:09;21.70;99.90
19555;DHT22;9924;50.828;6.440;2023-09-19T14:33:35;21.60;99.90
19555;DHT22;9924;50.828;6.440;2023-09-19T14:36:09;21.50;99.90
19555;DHT22;9924;50.828;6.440;2023-09-19T14:38:37;21.40;99.90
19555;DHT22;9924;50.828;6.440;2023-09-19T14:41:05;21.80;99.90
19555;DHT22;9924;50.828;6.440;2023-09-19T14:43:32;21.90;99.90
19555;DHT22;9924;50.828;6.440;2023-09-19T14:46:05;21.80;99.90
19555;DHT22;9924;50.828;6.440;2023-09-19T14:48:33;21.70;99.90
19555;DHT22;9924;50.828;6.440;2023-09-19T14:51:06;21.80;99.90
19555;DHT22;9924;50.828;6.440;2023-09-19T14:53:34;21.80;99.90
19555;DHT22;9924;50.828;6.440;2023-09-19T14:56:01;22.00;99.90
19555;DHT22;9924;50.828;6.440;2023-09-19T14:58:29;22.20;99.90
19555;DHT22;9924;50.828;6.440;2023-09-19T15:01:12;22.20;99.90
19555;DHT22;9924;50.828;6.440;2023-09-19T15:03:40;21.90;99.90
19555;DHT22;9924;50.828;6.440;2023-09-19T15:06:10;21.70;99.90
19555;DHT22;9924;50.828;6.440;2023-09-19T15:08:40;21.50;99.90
19555;DHT22;9924;50.828;6.440;2023-09-19T15:11:07;21.40;99.90
19555;DHT22;9924;50.828;6.440;2023-09-19T15:13:33;21.80;99.90
19555;DHT22;9924;50.828;6.440;2023-09-19T15:16:03;21.80;99.90
19555;DHT22;9924;50.828;6.440;2023-09-19T15:18:30;21.50;99.90
19555;DHT22;9924;50.828;6.440;2023-09-19T15:20:56;21.30;99.90
19555;DHT22;9924;50.828;6.440;2023-09-19T15:23:22;21.20;99.90
19555;DHT22;9924;50.828;6.440;2023-09-19T15:25:51;21.10;99.90
19555;DHT22;9924;50.828;6.440;2023-09-19T15:28:18;20.90;99.90
19555;DHT22;9924;50.828;6.440;2023-09-19T15:30:50;20.90;99.90
19555;DHT22;9924;50.828;6.440;2023-09-19T15:33:22;20.90;99.90
19555;DHT22;9924;50.828;6.440;2023-09-19T15:35:48;21.10;99.90
19555;DHT22;9924;50.828;6.440;2023-09-19T15:38:14;21.20;99.90
19555;DHT22;9924;50.828;6.440;2023-09-19T15:40:46;21.20;99.90
19555;DHT22;9924;50.828;6.440;2023-09-19T15:43:12;21.40;99.90
19555;DHT22;9924;50.828;6.440;2023-09-19T15:45:38;21.70;99.90
19555;DHT22;9924;50.828;6.440;2023-09-19T15:48:04;21.70;99.90
19555;DHT22;9924;50.828;6.440;2023-09-19T15:50:30;21.60;99.90
19555;DHT22;9924;50.828;6.440;2023-09-19T15:52:56;21.30;99.90
19555;DHT22;9924;50.828;6.440;2023-09-19T15:55:23;21.10;99.90
19555;DHT22;9924;50.828;6.440;2023-09-19T15:57:48;20.80;99.90
19555;DHT22;9924;50.828;6.440;2023-09-19T16:00:14;20.70;99.90
19555;DHT22;9924;50.828;6.440;2023-09-19T16:02:45;20.60;99.90
19555;DHT22;9924;50.828;6.440;2023-09-19T16:05:12;20.40;99.90
19555;DHT22;9924;50.828;6.440;2023-09-19T16:07:38;20.30;99.90
19555;DHT22;9924;50.828;6.440;2023-09-19T16:10:04;20.30;99.90
19555;DHT22;9924;50.828;6.440;2023-09-19T16:12:30;20.10;99.90
19555;DHT22;9924;50.828;6.440;2023-09-19T16:14:56;20.00;99.90
19555;DHT22;9924;50.828;6.440;2023-09-19T16:17:22;20.10;99.90
19555;DHT22;9924;50.828;6.440;2023-09-19T16:19:48;20.50;99.90
19555;DHT22;9924;50.828;6.440;2023-09-19T16:22:13;20.90;99.90
19555;DHT22;9924;50.828;6.440;2023-09-19T16:24:40;21.10;99.90
19555;DHT22;9924;50.828;6.440;2023-09-19T16:27:05;21.30;99.90
19555;DHT22;9924;50.828;6.440;2023-09-19T16:29:31;21.30;99.90
19555;DHT22;9924;50.828;6.440;2023-09-19T16:31:57;21.20;99.90
19555;DHT22;9924;50.828;6.440;2023-09-19T16:34:23;21.00;99.90
19555;DHT22;9924;50.828;6.440;2023-09-19T16:36:49;21.10;99.90
19555;DHT22;9924;50.828;6.440;2023-09-19T16:39:15;21.10;99.90
19555;DHT22;9924;50.828;6.440;2023-09-19T16:41:41;20.90;99.90